sensor_id;sensor_type;location;lat;lon;timestamp;P1;durP1;ratioP1;P2;durP2;ratioP2
37379;SDS011;23252;-33.992;18.480;2023-04-05T00:01:53;18.27;;;2.60;;
37379;SDS011;23252;-33.992;18.480;2023-04-05T00:04:20;15.88;;;3.03;;
37379;SDS011;23252;-33.992;18.480;2023-04-05T00:09:17;15.57;;;3.45;;
37379;SDS011;23252;-33.992;18.480;2023-04-05T02:13:32;14.02;;;2.33;;
37379;SDS011;23252;-33.992;18.480;2023-04-05T02:15:58;14.13;;;2.20;;
37379;SDS011;23252;-33.992;18.480;2023-04-05T02:18:25;11.63;;;2.40;;
37379;SDS011;23252;-33.992;18.480;2023-04-05T02:21:02;11.73;;;2.75;;
37379;SDS011;23252;-33.992;18.480;2023-04-05T02:23:30;7.30;;;2.03;;
37379;SDS011;23252;-33.992;18.480;2023-04-05T02:25:57;8.70;;;1.92;;
37379;SDS011;23252;-33.992;18.480;2023-04-05T02:28:24;11.27;;;2.75;;
37379;SDS011;23252;-33.992;18.480;2023-04-05T02:30:51;13.18;;;2.03;;
37379;SDS011;23252;-33.992;18.480;2023-04-05T02:33:18;17.20;;;2.10;;
37379;SDS011;23252;-33.992;18.480;2023-04-05T02:35:47;9.30;;;1.95;;
37379;SDS011;23252;-33.992;18.480;2023-04-05T02:38:14;9.75;;;2.40;;
37379;SDS011;23252;-33.992;18.480;2023-04-05T02:40:41;11.23;;;2.63;;
37379;SDS011;23252;-33.992;18.480;2023-04-05T02:43:07;12.67;;;2.37;;
37379;SDS011;23252;-33.992;18.480;2023-04-05T02:45:34;14.50;;;2.87;;
37379;SDS011;23252;-33.992;18.480;2023-04-05T02:48:01;16.73;;;2.00;;
37379;SDS011;23252;-33.992;18.480;2023-04-05T02:50:27;9.23;;;2.47;;
37379;SDS011;23252;-33.992;18.480;2023-04-05T02:52:54;13.10;;;2.37;;
37379;SDS011;23252;-33.992;18.480;2023-04-05T02:55:20;14.23;;;2.78;;
37379;SDS011;23252;-33.992;18.480;2023-04-05T02:57:47;13.20;;;2.43;;
37379;SDS011;23252;-33.992;18.480;2023-04-05T03:00:13;14.90;;;2.80;;
37379;SDS011;23252;-33.992;18.480;2023-04-05T03:02:40;12.77;;;2.35;;
37379;SDS011;23252;-33.992;18.480;2023-04-05T03:05:07;18.30;;;3.15;;
37379;SDS011;23252;-33.992;18.480;2023-04-05T03:07:34;12.05;;;2.88;;
37379;SDS011;23252;-33.992;18.480;2023-04-05T03:10:00;13.18;;;2.38;;
37379;SDS011;23252;-33.992;18.480;2023-04-05T03:12:27;11.77;;;2.50;;
37379;SDS011;23252;-33.992;18.480;2023-04-05T03:14:54;19.50;;;2.93;;
37379;SDS011;23252;-33.992;18.480;2023-04-05T03:17:20;10.45;;;2.20;;
37379;SDS011;23252;-33.992;18.480;2023-04-05T03:19:47;15.03;;;3.00;;
37379;SDS011;23252;-33.992;18.480;2023-04-05T03:22:13;11.90;;;2.87;;
37379;SDS011;23252;-33.992;18.480;2023-04-05T03:24:40;11.75;;;2.67;;
37379;SDS011;23252;-33.992;18.480;2023-04-05T03:27:06;20.00;;;3.20;;
37379;SDS011;23252;-33.992;18.480;2023-04-05T03:29:33;20.83;;;3.33;;
37379;SDS011;23252;-33.992;18.480;2023-04-05T03:31:59;15.13;;;2.67;;
37379;SDS011;23252;-33.992;18.480;2023-04-05T03:34:26;14.47;;;2.33;;
37379;SDS011;23252;-33.992;18.480;2023-04-05T03:36:56;12.07;;;2.55;;
37379;SDS011;23252;-33.992;18.480;2023-04-05T03:39:22;15.20;;;2.60;;
37379;SDS011;23252;-33.992;18.480;2023-04-05T03:41:49;13.95;;;2.85;;
37379;SDS011;23252;-33.992;18.480;2023-04-05T03:44:15;15.02;;;3.67;;
37379;SDS011;23252;-33.992;18.480;2023-04-05T03:46:42;12.90;;;2.97;;
37379;SDS011;23252;-33.992;18.480;2023-04-05T03:49:09;13.40;;;2.78;;
37379;SDS011;23252;-33.992;18.480;2023-04-05T03:51:36;14.95;;;2.60;;
37379;SDS011;23252;-33.992;18.480;2023-04-05T03:54:02;15.43;;;2.30;;
37379;SDS011;23252;-33.992;18.480;2023-04-05T03:56:29;10.10;;;2.08;;
37379;SDS011;23252;-33.992;18.480;2023-04-05T04:01:23;13.23;;;2.63;;
37379;SDS011;23252;-33.992;18.480;2023-04-05T04:03:50;14.45;;;2.65;;
37379;SDS011;23252;-33.992;18.480;2023-04-05T04:06:16;18.20;;;3.00;;
37379;SDS011;23252;-33.992;18.480;2023-04-05T04:08:43;16.60;;;3.67;;
37379;SDS011;23252;-33.992;18.480;2023-04-05T04:11:09;13.10;;;2.45;;
37379;SDS011;23252;-33.992;18.480;2023-04-05T04:13:36;14.67;;;2.97;;
37379;SDS011;23252;-33.992;18.480;2023-04-05T04:16:02;9.90;;;2.77;;
37379;SDS011;23252;-33.992;18.480;2023-04-05T04:18:29;8.75;;;2.67;;
37379;SDS011;23252;-33.992;18.480;2023-04-05T04:20:55;11.23;;;2.20;;
37379;SDS011;23252;-33.992;18.480;2023-04-05T04:23:22;12.68;;;3.05;;
37379;SDS011;23252;-33.992;18.480;2023-04-05T04:25:51;11.05;;;3.13;;
37379;SDS011;23252;-33.992;18.480;2023-04-05T04:28:20;9.27;;;2.50;;
37379;SDS011;23252;-33.992;18.480;2023-04-05T04:30:49;11.20;;;2.15;;
37379;SDS011;23252;-33.992;18.480;2023-04-05T04:33:16;12.32;;;2.45;;
37379;SDS011;23252;-33.992;18.480;2023-04-05T04:35:44;14.40;;;2.42;;
37379;SDS011;23252;-33.992;18.480;2023-04-05T04:38:13;11.20;;;2.40;;
37379;SDS011;23252;-33.992;18.480;2023-04-05T04:40:43;14.77;;;3.05;;
37379;SDS011;23252;-33.992;18.480;2023-04-05T04:43:15;14.77;;;3.33;;
37379;SDS011;23252;-33.992;18.480;2023-04-05T04:45:42;15.10;;;3.63;;
37379;SDS011;23252;-33.992;18.480;2023-04-05T04:48:12;16.02;;;3.95;;
37379;SDS011;23252;-33.992;18.480;2023-04-05T04:50:44;13.07;;;2.97;;
37379;SDS011;23252;-33.992;18.480;2023-04-05T04:53:11;13.98;;;3.28;;
37379;SDS011;23252;-33.992;18.480;2023-04-05T04:55:41;13.85;;;3.28;;
37379;SDS011;23252;-33.992;18.480;2023-04-05T04:58:08;20.67;;;4.38;;
37379;SDS011;23252;-33.992;18.480;2023-04-05T05:00:39;15.32;;;3.88;;
37379;SDS011;23252;-33.992;18.480;2023-04-05T05:03:08;19.15;;;4.57;;
37379;SDS011;23252;-33.992;18.480;2023-04-05T05:08:21;16.70;;;3.72;;
37379;SDS011;23252;-33.992;18.480;2023-04-05T05:10:51;16.35;;;4.35;;
37379;SDS011;23252;-33.992;18.480;2023-04-05T05:13:17;17.53;;;3.73;;
37379;SDS011;23252;-33.992;18.480;2023-04-05T05:15:44;21.67;;;3.78;;
37379;SDS011;23252;-33.992;18.480;2023-04-05T05:18:11;20.27;;;4.40;;
37379;SDS011;23252;-33.992;18.480;2023-04-05T05:20:37;20.10;;;6.43;;
37379;SDS011;23252;-33.992;18.480;2023-04-05T05:23:04;22.83;;;4.00;;
37379;SDS011;23252;-33.992;18.480;2023-04-05T05:25:30;19.93;;;4.37;;
37379;SDS011;23252;-33.992;18.480;2023-04-05T05:27:57;13.43;;;3.60;;
37379;SDS011;23252;-33.992;18.480;2023-04-05T05:30:24;12.25;;;3.50;;
37379;SDS011;23252;-33.992;18.480;2023-04-05T05:32:51;23.48;;;4.68;;
37379;SDS011;23252;-33.992;18.480;2023-04-05T05:35:17;17.23;;;3.80;;
37379;SDS011;23252;-33.992;18.480;2023-04-05T05:37:44;20.95;;;4.05;;
37379;SDS011;23252;-33.992;18.480;2023-04-05T05:40:11;15.67;;;3.77;;
37379;SDS011;23252;-33.992;18.480;2023-04-05T05:42:38;15.10;;;3.67;;
37379;SDS011;23252;-33.992;18.480;2023-04-05T05:45:04;15.52;;;3.80;;
37379;SDS011;23252;-33.992;18.480;2023-04-05T05:47:31;17.67;;;3.92;;
37379;SDS011;23252;-33.992;18.480;2023-04-05T05:49:58;22.70;;;4.35;;
37379;SDS011;23252;-33.992;18.480;2023-04-05T05:52:24;17.80;;;4.33;;
37379;SDS011;23252;-33.992;18.480;2023-04-05T05:54:51;18.77;;;3.93;;
37379;SDS011;23252;-33.992;18.480;2023-04-05T05:57:17;27.73;;;5.53;;
37379;SDS011;23252;-33.992;18.480;2023-04-05T05:59:44;21.70;;;4.20;;
37379;SDS011;23252;-33.992;18.480;2023-04-05T06:02:10;32.93;;;5.27;;
37379;SDS011;23252;-33.992;18.480;2023-04-05T06:04:37;20.90;;;4.93;;
37379;SDS011;23252;-33.992;18.480;2023-04-05T06:07:03;22.30;;;4.93;;
37379;SDS011;23252;-33.992;18.480;2023-04-05T06:09:30;16.93;;;3.90;;
37379;SDS011;23252;-33.992;18.480;2023-04-05T06:11:59;13.73;;;3.83;;
37379;SDS011;23252;-33.992;18.480;2023-04-05T06:14:26;15.15;;;3.88;;
37379;SDS011;23252;-33.992;18.480;2023-04-05T06:16:54;20.67;;;4.50;;
37379;SDS011;23252;-33.992;18.480;2023-04-05T06:19:21;15.50;;;4.10;;
37379;SDS011;23252;-33.992;18.480;2023-04-05T06:21:47;16.73;;;4.65;;
37379;SDS011;23252;-33.992;18.480;2023-04-05T06:24:14;19.37;;;4.20;;
37379;SDS011;23252;-33.992;18.480;2023-04-05T06:26:40;12.83;;;3.67;;
37379;SDS011;23252;-33.992;18.480;2023-04-05T06:29:07;20.27;;;4.07;;
37379;SDS011;23252;-33.992;18.480;2023-04-05T06:31:34;18.30;;;3.80;;
37379;SDS011;23252;-33.992;18.480;2023-04-05T06:34:01;22.63;;;4.47;;
37379;SDS011;23252;-33.992;18.480;2023-04-05T06:36:31;19.23;;;4.72;;
37379;SDS011;23252;-33.992;18.480;2023-04-05T06:38:58;17.60;;;4.38;;
37379;SDS011;23252;-33.992;18.480;2023-04-05T06:41:25;22.20;;;4.55;;
37379;SDS011;23252;-33.992;18.480;2023-04-05T06:43:55;19.40;;;4.38;;
37379;SDS011;23252;-33.992;18.480;2023-04-05T06:46:21;19.80;;;4.22;;
37379;SDS011;23252;-33.992;18.480;2023-04-05T06:48:48;20.70;;;4.68;;
37379;SDS011;23252;-33.992;18.480;2023-04-05T06:51:15;13.38;;;3.90;;
37379;SDS011;23252;-33.992;18.480;2023-04-05T06:53:42;18.63;;;3.90;;
37379;SDS011;23252;-33.992;18.480;2023-04-05T06:56:09;19.20;;;4.07;;
37379;SDS011;23252;-33.992;18.480;2023-04-05T06:58:36;20.48;;;4.25;;
37379;SDS011;23252;-33.992;18.480;2023-04-05T07:01:03;18.73;;;4.05;;
37379;SDS011;23252;-33.992;18.480;2023-04-05T07:03:30;18.20;;;4.50;;
37379;SDS011;23252;-33.992;18.480;2023-04-05T07:05:58;22.27;;;4.03;;
37379;SDS011;23252;-33.992;18.480;2023-04-05T07:08:26;21.10;;;4.90;;
37379;SDS011;23252;-33.992;18.480;2023-04-05T07:10:53;14.68;;;3.83;;
37379;SDS011;23252;-33.992;18.480;2023-04-05T07:13:21;17.48;;;4.38;;
37379;SDS011;23252;-33.992;18.480;2023-04-05T07:15:48;27.55;;;3.90;;
37379;SDS011;23252;-33.992;18.480;2023-04-05T07:18:16;21.83;;;4.50;;
37379;SDS011;23252;-33.992;18.480;2023-04-05T07:20:46;18.40;;;3.55;;
37379;SDS011;23252;-33.992;18.480;2023-04-05T07:23:16;16.88;;;4.18;;
37379;SDS011;23252;-33.992;18.480;2023-04-05T07:25:42;13.77;;;3.77;;
37379;SDS011;23252;-33.992;18.480;2023-04-05T07:28:10;14.55;;;3.90;;
37379;SDS011;23252;-33.992;18.480;2023-04-05T07:30:36;13.52;;;3.25;;
37379;SDS011;23252;-33.992;18.480;2023-04-05T07:33:03;23.33;;;3.97;;
37379;SDS011;23252;-33.992;18.480;2023-04-05T07:35:29;19.73;;;4.75;;
37379;SDS011;23252;-33.992;18.480;2023-04-05T07:37:56;20.70;;;4.40;;
37379;SDS011;23252;-33.992;18.480;2023-04-05T07:40:22;20.20;;;4.50;;
37379;SDS011;23252;-33.992;18.480;2023-04-05T07:42:49;17.17;;;3.60;;
37379;SDS011;23252;-33.992;18.480;2023-04-05T07:45:15;16.73;;;4.07;;
37379;SDS011;23252;-33.992;18.480;2023-04-05T07:47:42;17.02;;;3.95;;
37379;SDS011;23252;-33.992;18.480;2023-04-05T07:50:08;19.90;;;5.93;;
37379;SDS011;23252;-33.992;18.480;2023-04-05T07:52:39;19.02;;;4.57;;
37379;SDS011;23252;-33.992;18.480;2023-04-05T07:55:07;23.38;;;5.88;;
37379;SDS011;23252;-33.992;18.480;2023-04-05T07:57:34;24.65;;;5.05;;
37379;SDS011;23252;-33.992;18.480;2023-04-05T08:00:00;22.83;;;5.03;;
37379;SDS011;23252;-33.992;18.480;2023-04-05T08:02:29;18.27;;;4.32;;
37379;SDS011;23252;-33.992;18.480;2023-04-05T08:04:55;18.95;;;4.18;;
37379;SDS011;23252;-33.992;18.480;2023-04-05T08:07:22;13.07;;;3.58;;
37379;SDS011;23252;-33.992;18.480;2023-04-05T08:09:48;18.90;;;3.88;;
37379;SDS011;23252;-33.992;18.480;2023-04-05T08:12:15;17.65;;;4.28;;
37379;SDS011;23252;-33.992;18.480;2023-04-05T08:14:41;11.30;;;3.50;;
37379;SDS011;23252;-33.992;18.480;2023-04-05T08:17:08;12.77;;;3.30;;
37379;SDS011;23252;-33.992;18.480;2023-04-05T08:19:34;18.23;;;4.40;;
37379;SDS011;23252;-33.992;18.480;2023-04-05T08:22:01;13.25;;;3.20;;
37379;SDS011;23252;-33.992;18.480;2023-04-05T08:24:27;19.13;;;3.67;;
37379;SDS011;23252;-33.992;18.480;2023-04-05T08:26:54;16.70;;;3.80;;
37379;SDS011;23252;-33.992;18.480;2023-04-05T08:29:20;9.55;;;3.13;;
37379;SDS011;23252;-33.992;18.480;2023-04-05T08:31:47;13.00;;;3.10;;
37379;SDS011;23252;-33.992;18.480;2023-04-05T08:34:13;13.68;;;3.00;;
37379;SDS011;23252;-33.992;18.480;2023-04-05T08:36:40;19.45;;;3.85;;
37379;SDS011;23252;-33.992;18.480;2023-04-05T08:39:06;17.60;;;3.65;;
37379;SDS011;23252;-33.992;18.480;2023-04-05T08:41:38;14.35;;;3.85;;
37379;SDS011;23252;-33.992;18.480;2023-04-05T08:44:08;15.88;;;3.38;;
37379;SDS011;23252;-33.992;18.480;2023-04-05T08:46:35;16.25;;;3.60;;
37379;SDS011;23252;-33.992;18.480;2023-04-05T08:49:05;16.02;;;3.97;;
37379;SDS011;23252;-33.992;18.480;2023-04-05T08:51:32;14.55;;;3.60;;
37379;SDS011;23252;-33.992;18.480;2023-04-05T08:54:03;14.63;;;3.33;;
37379;SDS011;23252;-33.992;18.480;2023-04-05T08:56:34;9.15;;;2.53;;
37379;SDS011;23252;-33.992;18.480;2023-04-05T08:59:02;13.30;;;2.80;;
37379;SDS011;23252;-33.992;18.480;2023-04-05T09:01:31;7.82;;;2.47;;
37379;SDS011;23252;-33.992;18.480;2023-04-05T09:04:22;9.23;;;1.90;;
37379;SDS011;23252;-33.992;18.480;2023-04-05T09:06:51;9.27;;;2.65;;
37379;SDS011;23252;-33.992;18.480;2023-04-05T09:09:22;13.07;;;2.80;;
37379;SDS011;23252;-33.992;18.480;2023-04-05T09:11:50;13.35;;;2.65;;
37379;SDS011;23252;-33.992;18.480;2023-04-05T09:14:16;13.07;;;3.13;;
37379;SDS011;23252;-33.992;18.480;2023-04-05T09:16:45;15.15;;;3.70;;
37379;SDS011;23252;-33.992;18.480;2023-04-05T09:19:12;10.45;;;2.70;;
37379;SDS011;23252;-33.992;18.480;2023-04-05T09:24:38;14.57;;;2.75;;
37379;SDS011;23252;-33.992;18.480;2023-04-05T09:27:07;13.82;;;2.85;;
37379;SDS011;23252;-33.992;18.480;2023-04-05T09:29:42;15.15;;;2.55;;
37379;SDS011;23252;-33.992;18.480;2023-04-05T09:32:11;13.75;;;2.80;;
37379;SDS011;23252;-33.992;18.480;2023-04-05T09:34:38;11.73;;;3.42;;
37379;SDS011;23252;-33.992;18.480;2023-04-05T09:37:18;16.83;;;2.58;;
37379;SDS011;23252;-33.992;18.480;2023-04-05T09:39:46;14.32;;;2.65;;
37379;SDS011;23252;-33.992;18.480;2023-04-05T09:42:15;18.88;;;2.38;;
37379;SDS011;23252;-33.992;18.480;2023-04-05T09:44:53;15.35;;;2.60;;
37379;SDS011;23252;-33.992;18.480;2023-04-05T09:47:22;18.52;;;3.30;;
37379;SDS011;23252;-33.992;18.480;2023-04-05T09:49:51;12.93;;;2.90;;
37379;SDS011;23252;-33.992;18.480;2023-04-05T09:52:19;19.63;;;2.95;;
37379;SDS011;23252;-33.992;18.480;2023-04-05T09:54:48;14.52;;;3.22;;
37379;SDS011;23252;-33.992;18.480;2023-04-05T09:57:16;13.18;;;2.90;;
37379;SDS011;23252;-33.992;18.480;2023-04-05T09:59:44;13.15;;;2.90;;
37379;SDS011;23252;-33.992;18.480;2023-04-05T10:02:11;13.82;;;2.58;;
37379;SDS011;23252;-33.992;18.480;2023-04-05T10:04:41;17.92;;;2.40;;
37379;SDS011;23252;-33.992;18.480;2023-04-05T10:07:10;14.70;;;2.67;;
37379;SDS011;23252;-33.992;18.480;2023-04-05T10:09:44;17.08;;;2.85;;
37379;SDS011;23252;-33.992;18.480;2023-04-05T10:12:13;11.07;;;2.80;;
37379;SDS011;23252;-33.992;18.480;2023-04-05T10:14:53;23.33;;;3.08;;
37379;SDS011;23252;-33.992;18.480;2023-04-05T10:17:33;12.10;;;3.15;;
37379;SDS011;23252;-33.992;18.480;2023-04-05T10:20:20;14.60;;;2.72;;
37379;SDS011;23252;-33.992;18.480;2023-04-05T10:28:40;22.67;;;3.22;;
37379;SDS011;23252;-33.992;18.480;2023-04-05T10:34:05;17.33;;;3.67;;
37379;SDS011;23252;-33.992;18.480;2023-04-05T10:39:37;12.77;;;2.72;;
37379;SDS011;23252;-33.992;18.480;2023-04-05T10:42:17;14.00;;;2.85;;
37379;SDS011;23252;-33.992;18.480;2023-04-05T10:44:57;14.65;;;3.28;;
37379;SDS011;23252;-33.992;18.480;2023-04-05T10:47:30;20.20;;;2.63;;
37379;SDS011;23252;-33.992;18.480;2023-04-05T10:50:00;15.82;;;2.70;;
37379;SDS011;23252;-33.992;18.480;2023-04-05T10:52:32;13.50;;;2.70;;
37379;SDS011;23252;-33.992;18.480;2023-04-05T10:55:00;24.88;;;2.75;;
37379;SDS011;23252;-33.992;18.480;2023-04-05T10:57:29;14.20;;;2.75;;
37379;SDS011;23252;-33.992;18.480;2023-04-05T10:59:56;17.38;;;3.03;;
37379;SDS011;23252;-33.992;18.480;2023-04-05T11:02:27;12.15;;;2.83;;
37379;SDS011;23252;-33.992;18.480;2023-04-05T11:04:54;11.13;;;3.20;;
37379;SDS011;23252;-33.992;18.480;2023-04-05T11:23:20;15.48;;;2.75;;
37379;SDS011;23252;-33.992;18.480;2023-04-05T11:25:53;14.75;;;2.60;;
37379;SDS011;23252;-33.992;18.480;2023-04-05T11:28:28;11.68;;;2.22;;
37379;SDS011;23252;-33.992;18.480;2023-04-05T11:31:12;14.25;;;2.53;;
37379;SDS011;23252;-33.992;18.480;2023-04-05T11:36:07;27.67;;;3.08;;
37379;SDS011;23252;-33.992;18.480;2023-04-05T11:38:35;27.13;;;3.60;;
37379;SDS011;23252;-33.992;18.480;2023-04-05T11:41:11;20.20;;;3.05;;
37379;SDS011;23252;-33.992;18.480;2023-04-05T11:43:42;16.65;;;2.65;;
37379;SDS011;23252;-33.992;18.480;2023-04-05T11:46:12;18.45;;;3.55;;
37379;SDS011;23252;-33.992;18.480;2023-04-05T11:48:50;14.57;;;3.22;;
37379;SDS011;23252;-33.992;18.480;2023-04-05T11:51:17;10.95;;;2.00;;
37379;SDS011;23252;-33.992;18.480;2023-04-05T11:53:47;14.98;;;2.53;;
37379;SDS011;23252;-33.992;18.480;2023-04-05T11:56:13;19.20;;;3.15;;
37379;SDS011;23252;-33.992;18.480;2023-04-05T11:58:40;17.15;;;2.80;;
37379;SDS011;23252;-33.992;18.480;2023-04-05T12:01:07;19.70;;;3.38;;
37379;SDS011;23252;-33.992;18.480;2023-04-05T12:03:35;21.77;;;2.70;;
37379;SDS011;23252;-33.992;18.480;2023-04-05T12:06:02;15.02;;;2.80;;
37379;SDS011;23252;-33.992;18.480;2023-04-05T12:08:40;15.85;;;3.35;;
37379;SDS011;23252;-33.992;18.480;2023-04-05T12:11:27;11.73;;;2.60;;
37379;SDS011;23252;-33.992;18.480;2023-04-05T12:13:56;16.10;;;2.97;;
37379;SDS011;23252;-33.992;18.480;2023-04-05T12:16:24;11.88;;;3.08;;
37379;SDS011;23252;-33.992;18.480;2023-04-05T12:18:54;12.80;;;2.35;;
37379;SDS011;23252;-33.992;18.480;2023-04-05T12:21:22;14.38;;;2.50;;
37379;SDS011;23252;-33.992;18.480;2023-04-05T12:23:50;12.38;;;2.45;;
37379;SDS011;23252;-33.992;18.480;2023-04-05T12:26:17;15.07;;;2.78;;
37379;SDS011;23252;-33.992;18.480;2023-04-05T12:28:55;11.38;;;2.63;;
37379;SDS011;23252;-33.992;18.480;2023-04-05T12:31:41;14.55;;;3.03;;
37379;SDS011;23252;-33.992;18.480;2023-04-05T12:34:10;15.00;;;3.42;;
37379;SDS011;23252;-33.992;18.480;2023-04-05T12:36:38;18.02;;;3.33;;
37379;SDS011;23252;-33.992;18.480;2023-04-05T12:39:10;14.02;;;2.83;;
37379;SDS011;23252;-33.992;18.480;2023-04-05T12:41:36;8.10;;;2.67;;
37379;SDS011;23252;-33.992;18.480;2023-04-05T12:44:15;12.15;;;2.90;;
37379;SDS011;23252;-33.992;18.480;2023-04-05T12:46:58;18.27;;;2.67;;
37379;SDS011;23252;-33.992;18.480;2023-04-05T12:49:34;16.63;;;2.72;;
37379;SDS011;23252;-33.992;18.480;2023-04-05T12:52:03;11.85;;;2.78;;
37379;SDS011;23252;-33.992;18.480;2023-04-05T12:54:29;19.48;;;3.08;;
37379;SDS011;23252;-33.992;18.480;2023-04-05T12:56:56;17.95;;;2.70;;
37379;SDS011;23252;-33.992;18.480;2023-04-05T13:01:49;14.57;;;3.28;;
37379;SDS011;23252;-33.992;18.480;2023-04-05T13:04:16;9.52;;;2.67;;
37379;SDS011;23252;-33.992;18.480;2023-04-05T13:06:43;9.38;;;2.35;;
37379;SDS011;23252;-33.992;18.480;2023-04-05T13:09:11;14.27;;;2.42;;
37379;SDS011;23252;-33.992;18.480;2023-04-05T13:14:04;9.35;;;2.30;;
37379;SDS011;23252;-33.992;18.480;2023-04-05T13:16:30;12.60;;;2.83;;
37379;SDS011;23252;-33.992;18.480;2023-04-05T13:18:57;12.27;;;2.78;;
37379;SDS011;23252;-33.992;18.480;2023-04-05T13:21:23;12.60;;;2.15;;
37379;SDS011;23252;-33.992;18.480;2023-04-05T13:23:50;19.77;;;2.83;;
37379;SDS011;23252;-33.992;18.480;2023-04-05T13:26:16;12.63;;;2.58;;
37379;SDS011;23252;-33.992;18.480;2023-04-05T13:28:43;17.05;;;2.72;;
37379;SDS011;23252;-33.992;18.480;2023-04-05T13:31:09;9.88;;;2.22;;
37379;SDS011;23252;-33.992;18.480;2023-04-05T13:33:36;12.93;;;2.08;;
37379;SDS011;23252;-33.992;18.480;2023-04-05T13:36:02;16.17;;;2.22;;
37379;SDS011;23252;-33.992;18.480;2023-04-05T13:38:29;12.32;;;2.55;;
37379;SDS011;23252;-33.992;18.480;2023-04-05T13:40:56;12.45;;;2.65;;
37379;SDS011;23252;-33.992;18.480;2023-04-05T13:43:22;15.38;;;2.67;;
37379;SDS011;23252;-33.992;18.480;2023-04-05T13:45:50;10.90;;;2.63;;
37379;SDS011;23252;-33.992;18.480;2023-04-05T13:48:17;12.10;;;3.47;;
37379;SDS011;23252;-33.992;18.480;2023-04-05T13:50:44;12.30;;;2.78;;
37379;SDS011;23252;-33.992;18.480;2023-04-05T13:55:36;9.82;;;1.90;;
37379;SDS011;23252;-33.992;18.480;2023-04-05T13:58:03;14.25;;;2.85;;
37379;SDS011;23252;-33.992;18.480;2023-04-05T14:00:30;14.75;;;2.20;;
37379;SDS011;23252;-33.992;18.480;2023-04-05T14:02:57;6.95;;;2.17;;
37379;SDS011;23252;-33.992;18.480;2023-04-05T14:05:23;14.27;;;2.42;;
37379;SDS011;23252;-33.992;18.480;2023-04-05T14:07:50;12.18;;;2.47;;
37379;SDS011;23252;-33.992;18.480;2023-04-05T14:10:17;11.73;;;2.38;;
37379;SDS011;23252;-33.992;18.480;2023-04-05T14:12:45;11.32;;;2.80;;
37379;SDS011;23252;-33.992;18.480;2023-04-05T14:15:12;11.02;;;1.88;;
37379;SDS011;23252;-33.992;18.480;2023-04-05T14:17:38;13.82;;;2.45;;
37379;SDS011;23252;-33.992;18.480;2023-04-05T14:20:05;11.38;;;2.20;;
37379;SDS011;23252;-33.992;18.480;2023-04-05T14:22:32;12.35;;;2.60;;
37379;SDS011;23252;-33.992;18.480;2023-04-05T14:24:59;9.55;;;2.38;;
37379;SDS011;23252;-33.992;18.480;2023-04-05T14:27:25;8.90;;;2.50;;
37379;SDS011;23252;-33.992;18.480;2023-04-05T14:32:25;9.85;;;2.05;;
37379;SDS011;23252;-33.992;18.480;2023-04-05T14:34:52;9.80;;;2.92;;
37379;SDS011;23252;-33.992;18.480;2023-04-05T14:37:18;12.05;;;2.80;;
37379;SDS011;23252;-33.992;18.480;2023-04-05T14:39:45;9.77;;;2.20;;
37379;SDS011;23252;-33.992;18.480;2023-04-05T14:42:12;13.55;;;2.85;;
37379;SDS011;23252;-33.992;18.480;2023-04-05T14:44:38;13.52;;;3.42;;
37379;SDS011;23252;-33.992;18.480;2023-04-05T14:47:05;10.85;;;2.35;;
37379;SDS011;23252;-33.992;18.480;2023-04-05T14:49:31;9.90;;;2.45;;
37379;SDS011;23252;-33.992;18.480;2023-04-05T14:51:58;11.07;;;2.60;;
37379;SDS011;23252;-33.992;18.480;2023-04-05T14:54:25;14.30;;;2.28;;
37379;SDS011;23252;-33.992;18.480;2023-04-05T14:56:51;10.05;;;2.28;;
37379;SDS011;23252;-33.992;18.480;2023-04-05T14:59:18;18.70;;;3.33;;
37379;SDS011;23252;-33.992;18.480;2023-04-05T15:01:44;14.15;;;2.97;;
37379;SDS011;23252;-33.992;18.480;2023-04-05T15:04:11;10.85;;;1.92;;
37379;SDS011;23252;-33.992;18.480;2023-04-05T15:06:38;13.38;;;2.58;;
37379;SDS011;23252;-33.992;18.480;2023-04-05T15:09:05;13.00;;;2.17;;
37379;SDS011;23252;-33.992;18.480;2023-04-05T15:11:31;13.98;;;2.70;;
37379;SDS011;23252;-33.992;18.480;2023-04-05T15:13:59;15.95;;;2.92;;
37379;SDS011;23252;-33.992;18.480;2023-04-05T15:16:26;14.73;;;2.15;;
37379;SDS011;23252;-33.992;18.480;2023-04-05T15:18:54;11.13;;;2.70;;
37379;SDS011;23252;-33.992;18.480;2023-04-05T15:21:23;16.17;;;3.20;;
37379;SDS011;23252;-33.992;18.480;2023-04-05T15:23:50;16.15;;;2.55;;
37379;SDS011;23252;-33.992;18.480;2023-04-05T15:26:16;13.38;;;2.55;;
37379;SDS011;23252;-33.992;18.480;2023-04-05T15:28:43;14.65;;;3.10;;
37379;SDS011;23252;-33.992;18.480;2023-04-05T15:31:10;15.68;;;2.75;;
37379;SDS011;23252;-33.992;18.480;2023-04-05T15:33:36;13.02;;;2.58;;
37379;SDS011;23252;-33.992;18.480;2023-04-05T15:36:03;12.27;;;2.63;;
37379;SDS011;23252;-33.992;18.480;2023-04-05T15:38:31;13.32;;;3.42;;
37379;SDS011;23252;-33.992;18.480;2023-04-05T15:40:57;10.02;;;2.67;;
37379;SDS011;23252;-33.992;18.480;2023-04-05T15:43:24;16.88;;;3.00;;
37379;SDS011;23252;-33.992;18.480;2023-04-05T15:45:51;14.30;;;3.15;;
37379;SDS011;23252;-33.992;18.480;2023-04-05T15:48:17;15.00;;;3.05;;
37379;SDS011;23252;-33.992;18.480;2023-04-05T15:50:44;14.13;;;3.35;;
37379;SDS011;23252;-33.992;18.480;2023-04-05T15:53:10;15.48;;;3.83;;
37379;SDS011;23252;-33.992;18.480;2023-04-05T15:55:37;15.48;;;3.20;;
37379;SDS011;23252;-33.992;18.480;2023-04-05T15:58:03;12.02;;;2.83;;
37379;SDS011;23252;-33.992;18.480;2023-04-05T16:00:30;14.63;;;3.22;;
37379;SDS011;23252;-33.992;18.480;2023-04-05T16:02:57;12.10;;;2.90;;
37379;SDS011;23252;-33.992;18.480;2023-04-05T16:05:24;15.75;;;3.45;;
37379;SDS011;23252;-33.992;18.480;2023-04-05T16:07:51;16.42;;;3.13;;
37379;SDS011;23252;-33.992;18.480;2023-04-05T16:10:17;13.85;;;4.00;;
37379;SDS011;23252;-33.992;18.480;2023-04-05T18:13:52;19.80;;;6.07;;
37379;SDS011;23252;-33.992;18.480;2023-04-05T18:16:19;17.90;;;5.47;;
37379;SDS011;23252;-33.992;18.480;2023-04-05T18:18:45;20.08;;;5.40;;
37379;SDS011;23252;-33.992;18.480;2023-04-05T18:21:12;12.90;;;4.40;;
37379;SDS011;23252;-33.992;18.480;2023-04-05T18:23:39;14.05;;;4.47;;
37379;SDS011;23252;-33.992;18.480;2023-04-05T18:26:05;13.00;;;4.28;;
37379;SDS011;23252;-33.992;18.480;2023-04-05T18:28:33;16.23;;;4.53;;
37379;SDS011;23252;-33.992;18.480;2023-04-05T18:31:00;6.88;;;3.30;;
37379;SDS011;23252;-33.992;18.480;2023-04-05T18:33:26;10.77;;;3.85;;
37379;SDS011;23252;-33.992;18.480;2023-04-05T18:35:56;13.50;;;3.75;;
37379;SDS011;23252;-33.992;18.480;2023-04-05T18:38:22;9.40;;;3.22;;
37379;SDS011;23252;-33.992;18.480;2023-04-05T18:40:49;9.70;;;3.08;;
37379;SDS011;23252;-33.992;18.480;2023-04-05T18:43:23;12.15;;;2.80;;
37379;SDS011;23252;-33.992;18.480;2023-04-05T18:45:52;9.57;;;2.95;;
37379;SDS011;23252;-33.992;18.480;2023-04-05T18:48:19;11.15;;;4.32;;
37379;SDS011;23252;-33.992;18.480;2023-04-05T18:50:51;9.95;;;2.78;;
37379;SDS011;23252;-33.992;18.480;2023-04-05T18:53:21;11.25;;;2.90;;
37379;SDS011;23252;-33.992;18.480;2023-04-05T18:55:51;10.02;;;3.35;;
37379;SDS011;23252;-33.992;18.480;2023-04-05T18:58:18;11.02;;;3.60;;
37379;SDS011;23252;-33.992;18.480;2023-04-05T19:00:45;14.63;;;3.80;;
37379;SDS011;23252;-33.992;18.480;2023-04-05T19:03:12;12.25;;;3.15;;
37379;SDS011;23252;-33.992;18.480;2023-04-05T19:05:40;9.95;;;3.20;;
37379;SDS011;23252;-33.992;18.480;2023-04-05T19:08:06;10.90;;;3.25;;
37379;SDS011;23252;-33.992;18.480;2023-04-05T19:10:33;9.32;;;3.40;;